sensor_id;sensor_type;location;lat;lon;timestamp;pressure;altitude;pressure_sealevel;temperature;humidity
69566;BME280;56777;55.930;37.524;2023-12-14T00:01:54;101717.66;;;-6.78;84.28
69566;BME280;56777;55.930;37.524;2023-12-14T00:04:20;101757.50;;;-6.54;84.35
69566;BME280;56777;55.930;37.524;2023-12-14T00:06:45;101757.66;;;-6.53;84.32
69566;BME280;56777;55.930;37.524;2023-12-14T00:09:11;101743.44;;;-6.51;84.28
69566;BME280;56777;55.930;37.524;2023-12-14T00:11:39;101749.63;;;-6.40;84.38
69566;BME280;56777;55.930;37.524;2023-12-14T00:14:06;101758.94;;;-6.41;84.22
69566;BME280;56777;55.930;37.524;2023-12-14T00:16:31;101756.47;;;-6.48;84.12
69566;BME280;56777;55.930;37.524;2023-12-14T00:18:58;101736.66;;;-6.50;84.12
69566;BME280;56777;55.930;37.524;2023-12-14T00:21:23;101733.53;;;-6.48;84.34
69566;BME280;56777;55.930;37.524;2023-12-14T00:23:49;101695.69;;;-6.69;83.96
69566;BME280;56777;55.930;37.524;2023-12-14T00:26:14;101745.13;;;-6.43;84.46
69566;BME280;56777;55.930;37.524;2023-12-14T00:28:40;101729.22;;;-6.40;84.21
69566;BME280;56777;55.930;37.524;2023-12-14T00:31:05;101734.03;;;-6.43;84.15
69566;BME280;56777;55.930;37.524;2023-12-14T00:33:31;101714.63;;;-6.50;84.24
69566;BME280;56777;55.930;37.524;2023-12-14T00:35:57;101716.75;;;-6.46;84.14
69566;BME280;56777;55.930;37.524;2023-12-14T00:38:23;101709.03;;;-6.63;84.40
69566;BME280;56777;55.930;37.524;2023-12-14T00:40:48;101713.91;;;-6.49;84.34
69566;BME280;56777;55.930;37.524;2023-12-14T00:43:14;101722.59;;;-6.47;84.00
69566;BME280;56777;55.930;37.524;2023-12-14T00:45:39;101724.81;;;-6.50;84.45
69566;BME280;56777;55.930;37.524;2023-12-14T00:48:06;101715.09;;;-6.45;84.15
69566;BME280;56777;55.930;37.524;2023-12-14T00:50:32;101720.78;;;-6.48;84.50
69566;BME280;56777;55.930;37.524;2023-12-14T00:52:57;101717.47;;;-6.47;84.71
69566;BME280;56777;55.930;37.524;2023-12-14T00:55:23;101716.44;;;-6.49;84.33
69566;BME280;56777;55.930;37.524;2023-12-14T00:57:49;101717.16;;;-6.50;84.25
69566;BME280;56777;55.930;37.524;2023-12-14T01:00:15;101710.13;;;-6.52;84.21
69566;BME280;56777;55.930;37.524;2023-12-14T01:02:40;101716.28;;;-6.50;84.38
69566;BME280;56777;55.930;37.524;2023-12-14T01:05:06;101703.56;;;-6.42;84.60
69566;BME280;56777;55.930;37.524;2023-12-14T01:07:31;101706.34;;;-6.56;84.34
69566;BME280;56777;55.930;37.524;2023-12-14T01:09:57;101712.06;;;-6.50;84.27
69566;BME280;56777;55.930;37.524;2023-12-14T01:12:22;101705.75;;;-6.62;84.58
69566;BME280;56777;55.930;37.524;2023-12-14T01:14:48;101708.63;;;-6.50;84.21
69566;BME280;56777;55.930;37.524;2023-12-14T01:17:14;101719.00;;;-6.49;84.27
69566;BME280;56777;55.930;37.524;2023-12-14T01:19:40;101716.44;;;-6.49;84.05
69566;BME280;56777;55.930;37.524;2023-12-14T01:22:06;101720.75;;;-6.57;84.76
69566;BME280;56777;55.930;37.524;2023-12-14T01:24:32;101673.06;;;-6.66;85.18
69566;BME280;56777;55.930;37.524;2023-12-14T01:26:57;101710.28;;;-6.51;84.33
69566;BME280;56777;55.930;37.524;2023-12-14T01:29:23;101661.22;;;-6.66;84.97
69566;BME280;56777;55.930;37.524;2023-12-14T01:31:48;101709.09;;;-6.46;85.00
69566;BME280;56777;55.930;37.524;2023-12-14T01:34:14;101632.50;;;-6.89;84.64
69566;BME280;56777;55.930;37.524;2023-12-14T01:36:41;101672.75;;;-6.69;84.45
69566;BME280;56777;55.930;37.524;2023-12-14T01:39:07;101714.78;;;-6.48;84.36
69566;BME280;56777;55.930;37.524;2023-12-14T01:41:32;101702.47;;;-6.52;84.40
69566;BME280;56777;55.930;37.524;2023-12-14T01:43:58;101693.91;;;-6.53;84.04
69566;BME280;56777;55.930;37.524;2023-12-14T01:46:23;101691.25;;;-6.46;83.94
69566;BME280;56777;55.930;37.524;2023-12-14T01:48:49;101674.31;;;-6.37;84.77
69566;BME280;56777;55.930;37.524;2023-12-14T01:51:15;101697.09;;;-6.47;84.49
69566;BME280;56777;55.930;37.524;2023-12-14T01:53:41;101697.56;;;-6.42;85.01
69566;BME280;56777;55.930;37.524;2023-12-14T01:56:07;101712.72;;;-6.44;84.11
69566;BME280;56777;55.930;37.524;2023-12-14T01:58:32;101694.41;;;-6.48;84.00
69566;BME280;56777;55.930;37.524;2023-12-14T02:01:41;101683.44;;;-6.47;84.71
69566;BME280;56777;55.930;37.524;2023-12-14T02:04:08;101690.66;;;-6.52;84.76
69566;BME280;56777;55.930;37.524;2023-12-14T02:06:35;101669.75;;;-6.65;84.24
69566;BME280;56777;55.930;37.524;2023-12-14T02:09:01;101680.28;;;-6.53;84.44
69566;BME280;56777;55.930;37.524;2023-12-14T02:11:27;101675.47;;;-6.59;84.18
69566;BME280;56777;55.930;37.524;2023-12-14T02:13:52;101678.50;;;-6.54;84.14
69566;BME280;56777;55.930;37.524;2023-12-14T02:16:18;101683.72;;;-6.53;84.43
69566;BME280;56777;55.930;37.524;2023-12-14T02:18:44;101692.59;;;-6.49;84.42
69566;BME280;56777;55.930;37.524;2023-12-14T02:21:10;101694.50;;;-6.55;83.75
69566;BME280;56777;55.930;37.524;2023-12-14T02:23:43;101698.00;;;-6.46;84.04
69566;BME280;56777;55.930;37.524;2023-12-14T02:26:09;101683.00;;;-6.52;84.25
69566;BME280;56777;55.930;37.524;2023-12-14T02:28:34;101676.38;;;-6.50;84.29
69566;BME280;56777;55.930;37.524;2023-12-14T02:31:00;101690.50;;;-6.45;84.30
69566;BME280;56777;55.930;37.524;2023-12-14T02:33:25;101673.97;;;-6.57;84.32
69566;BME280;56777;55.930;37.524;2023-12-14T02:35:51;101656.69;;;-6.68;84.01
69566;BME280;56777;55.930;37.524;2023-12-14T02:38:16;101677.25;;;-6.58;84.59
69566;BME280;56777;55.930;37.524;2023-12-14T02:40:42;101684.16;;;-6.57;84.14
69566;BME280;56777;55.930;37.524;2023-12-14T02:43:07;101692.53;;;-6.58;84.72
69566;BME280;56777;55.930;37.524;2023-12-14T02:45:33;101691.06;;;-6.56;84.01
69566;BME280;56777;55.930;37.524;2023-12-14T02:47:59;101697.22;;;-6.54;84.45
69566;BME280;56777;55.930;37.524;2023-12-14T02:50:24;101704.44;;;-6.50;84.45
69566;BME280;56777;55.930;37.524;2023-12-14T02:52:49;101710.28;;;-6.51;84.32
69566;BME280;56777;55.930;37.524;2023-12-14T02:55:15;101725.59;;;-6.51;84.30
69566;BME280;56777;55.930;37.524;2023-12-14T02:57:41;101734.25;;;-6.58;84.11
69566;BME280;56777;55.930;37.524;2023-12-14T03:00:07;101735.00;;;-6.59;83.85
69566;BME280;56777;55.930;37.524;2023-12-14T03:02:34;101742.94;;;-6.55;84.25
69566;BME280;56777;55.930;37.524;2023-12-14T03:04:59;101729.75;;;-6.60;84.39
69566;BME280;56777;55.930;37.524;2023-12-14T03:07:25;101725.69;;;-6.58;83.55
69566;BME280;56777;55.930;37.524;2023-12-14T03:09:50;101729.00;;;-6.59;83.81
69566;BME280;56777;55.930;37.524;2023-12-14T03:12:16;101726.88;;;-6.63;84.29
69566;BME280;56777;55.930;37.524;2023-12-14T03:14:41;101725.75;;;-6.49;84.20
69566;BME280;56777;55.930;37.524;2023-12-14T03:17:07;101693.69;;;-6.81;84.61
69566;BME280;56777;55.930;37.524;2023-12-14T03:19:41;101736.91;;;-6.65;84.36
69566;BME280;56777;55.930;37.524;2023-12-14T03:22:08;101735.03;;;-6.50;84.43
69566;BME280;56777;55.930;37.524;2023-12-14T03:24:34;101728.09;;;-6.60;84.45
69566;BME280;56777;55.930;37.524;2023-12-14T03:26:59;101745.94;;;-6.60;84.87
69566;BME280;56777;55.930;37.524;2023-12-14T03:29:26;101742.06;;;-6.56;84.69
69566;BME280;56777;55.930;37.524;2023-12-14T03:31:52;101758.50;;;-6.61;84.59
69566;BME280;56777;55.930;37.524;2023-12-14T03:34:18;101762.00;;;-6.61;84.57
69566;BME280;56777;55.930;37.524;2023-12-14T03:36:43;101769.63;;;-6.61;84.56
69566;BME280;56777;55.930;37.524;2023-12-14T03:39:09;101752.47;;;-6.70;84.89
69566;BME280;56777;55.930;37.524;2023-12-14T03:41:35;101747.69;;;-6.67;84.88
69566;BME280;56777;55.930;37.524;2023-12-14T03:44:01;101757.63;;;-6.62;85.15
69566;BME280;56777;55.930;37.524;2023-12-14T03:46:26;101765.13;;;-6.63;84.71
69566;BME280;56777;55.930;37.524;2023-12-14T03:48:52;101756.72;;;-6.62;84.90
69566;BME280;56777;55.930;37.524;2023-12-14T03:51:19;101744.25;;;-6.68;84.92
69566;BME280;56777;55.930;37.524;2023-12-14T03:53:44;101749.22;;;-6.69;84.83
69566;BME280;56777;55.930;37.524;2023-12-14T03:56:10;101771.69;;;-6.65;84.71
69566;BME280;56777;55.930;37.524;2023-12-14T03:58:36;101722.41;;;-6.90;85.39
69566;BME280;56777;55.930;37.524;2023-12-14T04:01:01;101744.22;;;-6.76;84.99
69566;BME280;56777;55.930;37.524;2023-12-14T04:03:27;101754.72;;;-6.73;84.64
69566;BME280;56777;55.930;37.524;2023-12-14T04:05:53;101760.03;;;-6.63;84.96
69566;BME280;56777;55.930;37.524;2023-12-14T04:08:18;101759.13;;;-6.64;84.90
69566;BME280;56777;55.930;37.524;2023-12-14T04:10:44;101753.59;;;-6.60;85.41
69566;BME280;56777;55.930;37.524;2023-12-14T04:13:09;101763.59;;;-6.61;84.97
69566;BME280;56777;55.930;37.524;2023-12-14T04:15:35;101772.31;;;-6.59;85.12
69566;BME280;56777;55.930;37.524;2023-12-14T04:18:01;101775.63;;;-6.60;85.20
69566;BME280;56777;55.930;37.524;2023-12-14T04:20:26;101768.41;;;-6.64;85.18
69566;BME280;56777;55.930;37.524;2023-12-14T04:22:52;101758.06;;;-6.66;84.59
69566;BME280;56777;55.930;37.524;2023-12-14T04:25:17;101767.22;;;-6.59;84.80
69566;BME280;56777;55.930;37.524;2023-12-14T04:27:44;101759.72;;;-6.66;84.92
69566;BME280;56777;55.930;37.524;2023-12-14T04:30:10;101751.03;;;-6.60;85.13
69566;BME280;56777;55.930;37.524;2023-12-14T04:32:36;101751.19;;;-6.58;84.76
69566;BME280;56777;55.930;37.524;2023-12-14T04:35:02;101746.22;;;-6.65;85.14
69566;BME280;56777;55.930;37.524;2023-12-14T04:37:28;101738.84;;;-6.71;84.80
69566;BME280;56777;55.930;37.524;2023-12-14T04:39:55;101715.38;;;-6.84;84.95
69566;BME280;56777;55.930;37.524;2023-12-14T04:42:21;101744.09;;;-6.69;84.94
69566;BME280;56777;55.930;37.524;2023-12-14T04:44:46;101746.31;;;-6.72;84.94
69566;BME280;56777;55.930;37.524;2023-12-14T04:47:12;101761.50;;;-6.65;85.23
69566;BME280;56777;55.930;37.524;2023-12-14T04:49:37;101757.63;;;-6.62;84.77
69566;BME280;56777;55.930;37.524;2023-12-14T04:52:03;101759.28;;;-6.62;85.01
69566;BME280;56777;55.930;37.524;2023-12-14T04:54:29;101768.13;;;-6.59;84.63
69566;BME280;56777;55.930;37.524;2023-12-14T04:56:54;101766.59;;;-6.65;84.44
69566;BME280;56777;55.930;37.524;2023-12-14T04:59:20;101766.34;;;-6.60;84.36
69566;BME280;56777;55.930;37.524;2023-12-14T05:01:45;101772.91;;;-6.62;84.75
69566;BME280;56777;55.930;37.524;2023-12-14T05:04:11;101769.94;;;-6.58;84.45
69566;BME280;56777;55.930;37.524;2023-12-14T05:06:38;101741.34;;;-6.80;84.06
69566;BME280;56777;55.930;37.524;2023-12-14T05:09:03;101781.03;;;-6.57;84.30
69566;BME280;56777;55.930;37.524;2023-12-14T05:11:31;101776.66;;;-6.58;83.55
69566;BME280;56777;55.930;37.524;2023-12-14T05:13:57;101780.72;;;-6.60;84.06
69566;BME280;56777;55.930;37.524;2023-12-14T05:16:23;101762.56;;;-6.63;84.39
69566;BME280;56777;55.930;37.524;2023-12-14T05:18:53;101744.38;;;-6.75;84.53
69566;BME280;56777;55.930;37.524;2023-12-14T05:21:19;101760.13;;;-6.70;83.70
69566;BME280;56777;55.930;37.524;2023-12-14T05:23:45;101760.59;;;-6.66;84.12
69566;BME280;56777;55.930;37.524;2023-12-14T05:26:10;101759.06;;;-6.72;83.92
69566;BME280;56777;55.930;37.524;2023-12-14T05:28:36;101752.47;;;-6.70;83.71
69566;BME280;56777;55.930;37.524;2023-12-14T05:31:01;101780.25;;;-6.65;84.00
69566;BME280;56777;55.930;37.524;2023-12-14T05:33:28;101768.09;;;-6.67;83.66
69566;BME280;56777;55.930;37.524;2023-12-14T05:35:53;101778.59;;;-6.64;83.57
69566;BME280;56777;55.930;37.524;2023-12-14T05:38:19;101726.09;;;-6.95;83.46
69566;BME280;56777;55.930;37.524;2023-12-14T05:40:45;101770.53;;;-6.60;83.91
69566;BME280;56777;55.930;37.524;2023-12-14T05:43:10;101779.22;;;-6.58;84.05
69566;BME280;56777;55.930;37.524;2023-12-14T05:45:36;101779.44;;;-6.72;83.74
69566;BME280;56777;55.930;37.524;2023-12-14T05:48:02;101769.88;;;-6.75;83.96
69566;BME280;56777;55.930;37.524;2023-12-14T05:50:30;101777.56;;;-6.66;84.25
69566;BME280;56777;55.930;37.524;2023-12-14T05:52:56;101776.22;;;-6.63;84.13
69566;BME280;56777;55.930;37.524;2023-12-14T05:55:22;101771.97;;;-6.71;83.93
69566;BME280;56777;55.930;37.524;2023-12-14T05:57:48;101772.56;;;-6.73;83.73
69566;BME280;56777;55.930;37.524;2023-12-14T06:00:14;101794.50;;;-6.58;84.01
69566;BME280;56777;55.930;37.524;2023-12-14T06:02:41;101792.84;;;-6.66;84.25
69566;BME280;56777;55.930;37.524;2023-12-14T06:05:07;101802.47;;;-6.64;83.96
69566;BME280;56777;55.930;37.524;2023-12-14T06:07:33;101778.44;;;-6.90;83.85
69566;BME280;56777;55.930;37.524;2023-12-14T06:09:58;101790.84;;;-6.77;83.75
69566;BME280;56777;55.930;37.524;2023-12-14T06:12:24;101804.94;;;-6.72;84.05
69566;BME280;56777;55.930;37.524;2023-12-14T06:14:50;101776.66;;;-6.91;84.24
69566;BME280;56777;55.930;37.524;2023-12-14T06:17:16;101794.16;;;-6.70;84.30
69566;BME280;56777;55.930;37.524;2023-12-14T06:19:41;101784.53;;;-6.72;84.43
69566;BME280;56777;55.930;37.524;2023-12-14T06:22:07;101794.63;;;-6.65;84.67
69566;BME280;56777;55.930;37.524;2023-12-14T06:24:33;101790.72;;;-6.70;84.70
69566;BME280;56777;55.930;37.524;2023-12-14T06:26:58;101794.19;;;-6.61;85.28
69566;BME280;56777;55.930;37.524;2023-12-14T06:29:24;101787.78;;;-6.58;84.72
69566;BME280;56777;55.930;37.524;2023-12-14T06:31:49;101773.50;;;-6.64;84.69
69566;BME280;56777;55.930;37.524;2023-12-14T06:34:16;101744.34;;;-6.84;85.43
69566;BME280;56777;55.930;37.524;2023-12-14T06:36:45;101778.59;;;-6.64;85.04
69566;BME280;56777;55.930;37.524;2023-12-14T06:39:11;101769.31;;;-6.64;85.06
69566;BME280;56777;55.930;37.524;2023-12-14T06:41:37;101774.47;;;-6.55;85.55
69566;BME280;56777;55.930;37.524;2023-12-14T06:44:03;101778.31;;;-6.59;85.09
69566;BME280;56777;55.930;37.524;2023-12-14T06:46:29;101787.75;;;-6.66;85.33
69566;BME280;56777;55.930;37.524;2023-12-14T06:48:54;101781.78;;;-6.58;86.26
69566;BME280;56777;55.930;37.524;2023-12-14T06:51:21;101768.13;;;-6.59;85.39
69566;BME280;56777;55.930;37.524;2023-12-14T06:53:47;101757.78;;;-6.60;85.66
69566;BME280;56777;55.930;37.524;2023-12-14T06:56:13;101760.66;;;-6.57;85.80
69566;BME280;56777;55.930;37.524;2023-12-14T06:58:42;101755.59;;;-6.48;85.79
69566;BME280;56777;55.930;37.524;2023-12-14T07:01:16;101728.59;;;-6.80;85.98
69566;BME280;56777;55.930;37.524;2023-12-14T07:03:43;101775.94;;;-6.57;85.71
69566;BME280;56777;55.930;37.524;2023-12-14T07:06:17;101775.19;;;-6.56;84.87
69566;BME280;56777;55.930;37.524;2023-12-14T07:08:43;101785.28;;;-6.49;85.70
69566;BME280;56777;55.930;37.524;2023-12-14T07:11:10;101783.47;;;-6.50;85.51
69566;BME280;56777;55.930;37.524;2023-12-14T07:13:36;101766.69;;;-6.48;85.67
69566;BME280;56777;55.930;37.524;2023-12-14T07:16:05;101753.66;;;-6.42;85.53
69566;BME280;56777;55.930;37.524;2023-12-14T07:18:31;101752.25;;;-6.56;85.74
69566;BME280;56777;55.930;37.524;2023-12-14T07:20:57;101760.56;;;-6.41;85.63
69566;BME280;56777;55.930;37.524;2023-12-14T07:23:22;101776.78;;;-6.41;85.39
69566;BME280;56777;55.930;37.524;2023-12-14T07:25:48;101761.47;;;-6.41;85.48
69566;BME280;56777;55.930;37.524;2023-12-14T07:28:13;101761.47;;;-6.41;85.59
69566;BME280;56777;55.930;37.524;2023-12-14T07:30:39;101749.16;;;-6.45;85.23
69566;BME280;56777;55.930;37.524;2023-12-14T07:33:04;101735.19;;;-6.48;85.53
69566;BME280;56777;55.930;37.524;2023-12-14T07:35:30;101748.78;;;-6.23;85.99
69566;BME280;56777;55.930;37.524;2023-12-14T07:37:55;101734.78;;;-6.27;85.19
69566;BME280;56777;55.930;37.524;2023-12-14T07:40:21;101733.19;;;-6.26;85.34
69566;BME280;56777;55.930;37.524;2023-12-14T07:42:46;101724.78;;;-6.17;85.48
69566;BME280;56777;55.930;37.524;2023-12-14T07:45:12;101729.28;;;-6.23;85.89
69566;BME280;56777;55.930;37.524;2023-12-14T07:47:37;101728.78;;;-6.27;85.62
69566;BME280;56777;55.930;37.524;2023-12-14T07:50:03;101719.03;;;-6.40;85.29
69566;BME280;56777;55.930;37.524;2023-12-14T07:52:29;101748.47;;;-6.26;85.20
69566;BME280;56777;55.930;37.524;2023-12-14T07:54:55;101759.56;;;-6.26;85.30
69566;BME280;56777;55.930;37.524;2023-12-14T07:57:20;101754.19;;;-6.20;85.04
69566;BME280;56777;55.930;37.524;2023-12-14T07:59:46;101745.78;;;-6.19;84.88
69566;BME280;56777;55.930;37.524;2023-12-14T08:02:11;101745.19;;;-6.17;85.11
69566;BME280;56777;55.930;37.524;2023-12-14T08:04:37;101742.97;;;-6.05;85.17
69566;BME280;56777;55.930;37.524;2023-12-14T08:07:02;101739.66;;;-6.04;84.99
69566;BME280;56777;55.930;37.524;2023-12-14T08:09:28;101742.50;;;-6.09;84.74
69566;BME280;56777;55.930;37.524;2023-12-14T08:11:54;101736.50;;;-6.10;85.33
69566;BME280;56777;55.930;37.524;2023-12-14T08:14:19;101715.47;;;-6.16;85.00
69566;BME280;56777;55.930;37.524;2023-12-14T08:16:45;101704.84;;;-6.12;84.84
69566;BME280;56777;55.930;37.524;2023-12-14T08:19:10;101711.16;;;-6.00;85.14
69566;BME280;56777;55.930;37.524;2023-12-14T08:21:36;101719.41;;;-5.94;85.03
69566;BME280;56777;55.930;37.524;2023-12-14T08:24:01;101714.59;;;-6.08;84.84
69566;BME280;56777;55.930;37.524;2023-12-14T08:26:27;101725.13;;;-5.96;84.88
69566;BME280;56777;55.930;37.524;2023-12-14T08:28:53;101729.91;;;-6.08;84.45
69566;BME280;56777;55.930;37.524;2023-12-14T08:31:18;101717.75;;;-6.02;84.81
69566;BME280;56777;55.930;37.524;2023-12-14T08:33:44;101687.72;;;-6.04;84.66
69566;BME280;56777;55.930;37.524;2023-12-14T08:36:09;101704.41;;;-5.99;84.96
69566;BME280;56777;55.930;37.524;2023-12-14T08:38:36;101694.16;;;-5.91;84.92
69566;BME280;56777;55.930;37.524;2023-12-14T08:41:02;101684.56;;;-5.84;85.22
69566;BME280;56777;55.930;37.524;2023-12-14T08:43:27;101674.53;;;-5.92;85.71
69566;BME280;56777;55.930;37.524;2023-12-14T08:45:53;101670.78;;;-5.95;85.60
69566;BME280;56777;55.930;37.524;2023-12-14T08:48:18;101678.25;;;-5.88;85.14
69566;BME280;56777;55.930;37.524;2023-12-14T08:50:44;101679.16;;;-5.88;85.88
69566;BME280;56777;55.930;37.524;2023-12-14T08:53:10;101678.84;;;-5.73;85.64
69566;BME280;56777;55.930;37.524;2023-12-14T08:55:36;101663.41;;;-5.83;85.92
69566;BME280;56777;55.930;37.524;2023-12-14T08:58:03;101684.44;;;-5.77;85.94
69566;BME280;56777;55.930;37.524;2023-12-14T09:00:28;101696.44;;;-5.76;84.87
69566;BME280;56777;55.930;37.524;2023-12-14T09:02:54;101699.88;;;-5.76;86.18
69566;BME280;56777;55.930;37.524;2023-12-14T09:05:20;101677.97;;;-5.91;85.77
69566;BME280;56777;55.930;37.524;2023-12-14T09:07:47;101691.50;;;-5.75;85.72
69566;BME280;56777;55.930;37.524;2023-12-14T09:10:12;101699.28;;;-5.73;86.43
69566;BME280;56777;55.930;37.524;2023-12-14T09:12:38;101677.06;;;-5.92;86.28
69566;BME280;56777;55.930;37.524;2023-12-14T09:15:04;101695.53;;;-5.68;86.62
69566;BME280;56777;55.930;37.524;2023-12-14T09:17:29;101667.16;;;-5.71;86.79
69566;BME280;56777;55.930;37.524;2023-12-14T09:20:01;101707.09;;;-5.63;86.86
69566;BME280;56777;55.930;37.524;2023-12-14T09:22:30;101703.50;;;-5.65;86.18
69566;BME280;56777;55.930;37.524;2023-12-14T09:24:56;101704.56;;;-5.63;86.49
69566;BME280;56777;55.930;37.524;2023-12-14T09:27:21;101696.44;;;-5.68;86.17
69566;BME280;56777;55.930;37.524;2023-12-14T09:29:47;101701.69;;;-5.66;86.55
69566;BME280;56777;55.930;37.524;2023-12-14T09:32:12;101702.91;;;-5.71;86.10
69566;BME280;56777;55.930;37.524;2023-12-14T09:34:38;101707.41;;;-5.60;86.69
69566;BME280;56777;55.930;37.524;2023-12-14T09:37:04;101691.50;;;-5.75;86.84
69566;BME280;56777;55.930;37.524;2023-12-14T09:39:30;101653.81;;;-5.86;86.80
69566;BME280;56777;55.930;37.524;2023-12-14T09:42:06;101687.88;;;-5.59;86.35
69566;BME280;56777;55.930;37.524;2023-12-14T09:44:33;101606.25;;;-6.03;86.78
69566;BME280;56777;55.930;37.524;2023-12-14T09:47:02;101685.47;;;-5.58;86.33
69566;BME280;56777;55.930;37.524;2023-12-14T09:49:29;101683.66;;;-5.59;86.71
69566;BME280;56777;55.930;37.524;2023-12-14T09:51:59;101686.50;;;-5.64;86.15
69566;BME280;56777;55.930;37.524;2023-12-14T09:54:26;101670.78;;;-5.78;86.12
69566;BME280;56777;55.930;37.524;2023-12-14T09:56:52;101673.75;;;-5.73;86.93
69566;BME280;56777;55.930;37.524;2023-12-14T09:59:19;101687.72;;;-5.61;86.43
69566;BME280;56777;55.930;37.524;2023-12-14T10:01:45;101649.41;;;-5.78;86.91
69566;BME280;56777;55.930;37.524;2023-12-14T10:04:16;101686.81;;;-5.53;86.67
69566;BME280;56777;55.930;37.524;2023-12-14T10:06:43;101668.94;;;-5.53;86.32
69566;BME280;56777;55.930;37.524;2023-12-14T10:09:10;101676.00;;;-5.50;86.56
69566;BME280;56777;55.930;37.524;2023-12-14T10:11:42;101669.50;;;-5.47;86.47
69566;BME280;56777;55.930;37.524;2023-12-14T10:14:21;101668.94;;;-5.53;86.91
69566;BME280;56777;55.930;37.524;2023-12-14T10:16:48;101671.94;;;-5.48;86.85
69566;BME280;56777;55.930;37.524;2023-12-14T10:19:14;101680.19;;;-5.42;87.10
69566;BME280;56777;55.930;37.524;2023-12-14T10:21:39;101675.53;;;-5.37;86.43
69566;BME280;56777;55.930;37.524;2023-12-14T10:24:06;101662.28;;;-5.33;87.52
69566;BME280;56777;55.930;37.524;2023-12-14T10:26:32;101643.97;;;-5.47;86.83
69566;BME280;56777;55.930;37.524;2023-12-14T10:28:57;101640.69;;;-5.46;87.30
69566;BME280;56777;55.930;37.524;2023-12-14T10:31:24;101650.59;;;-5.40;87.07
69566;BME280;56777;55.930;37.524;2023-12-14T10:33:51;101655.69;;;-5.31;86.94
69566;BME280;56777;55.930;37.524;2023-12-14T10:36:21;101655.97;;;-5.28;87.21
69566;BME280;56777;55.930;37.524;2023-12-14T10:38:52;101655.53;;;-5.33;86.80
69566;BME280;56777;55.930;37.524;2023-12-14T10:41:18;101663.50;;;-5.38;87.32
69566;BME280;56777;55.930;37.524;2023-12-14T10:43:47;101655.84;;;-5.38;87.30
69566;BME280;56777;55.930;37.524;2023-12-14T10:46:14;101653.28;;;-5.38;87.03
69566;BME280;56777;55.930;37.524;2023-12-14T10:48:40;101613.81;;;-5.59;87.00
69566;BME280;56777;55.930;37.524;2023-12-14T10:51:11;101663.78;;;-5.27;87.65
69566;BME280;56777;55.930;37.524;2023-12-14T10:53:37;101662.88;;;-5.27;86.97
69566;BME280;56777;55.930;37.524;2023-12-14T10:56:06;101662.28;;;-5.25;87.57
69566;BME280;56777;55.930;37.524;2023-12-14T11:01:19;101617.13;;;-5.52;86.38
69566;BME280;56777;55.930;37.524;2023-12-14T11:03:46;101628.22;;;-5.43;86.86
69566;BME280;56777;55.930;37.524;2023-12-14T11:08:55;101656.09;;;-5.18;87.56
69566;BME280;56777;55.930;37.524;2023-12-14T11:11:21;101668.84;;;-5.18;87.03
69566;BME280;56777;55.930;37.524;2023-12-14T11:13:52;101665.88;;;-5.23;87.37
69566;BME280;56777;55.930;37.524;2023-12-14T11:16:21;101651.59;;;-5.12;87.82
69566;BME280;56777;55.930;37.524;2023-12-14T11:18:46;101652.31;;;-5.13;87.59
69566;BME280;56777;55.930;37.524;2023-12-14T11:21:18;101651.44;;;-5.22;86.85
69566;BME280;56777;55.930;37.524;2023-12-14T11:23:50;101641.50;;;-5.10;86.87
69566;BME280;56777;55.930;37.524;2023-12-14T11:26:20;101614.81;;;-5.31;87.62
69566;BME280;56777;55.930;37.524;2023-12-14T11:28:48;101627.69;;;-5.21;87.03
69566;BME280;56777;55.930;37.524;2023-12-14T11:31:14;101627.84;;;-5.19;87.06
69566;BME280;56777;55.930;37.524;2023-12-14T11:33:39;101613.91;;;-5.23;86.74
69566;BME280;56777;55.930;37.524;2023-12-14T11:36:05;101624.97;;;-5.14;87.50
69566;BME280;56777;55.930;37.524;2023-12-14T11:38:32;101616.25;;;-5.16;87.74
69566;BME280;56777;55.930;37.524;2023-12-14T11:40:58;101621.38;;;-5.16;87.11
69566;BME280;56777;55.930;37.524;2023-12-14T11:43:24;101618.81;;;-5.16;87.07
69566;BME280;56777;55.930;37.524;2023-12-14T11:45:52;101593.03;;;-5.36;86.61
69566;BME280;56777;55.930;37.524;2023-12-14T11:48:18;101594.97;;;-5.25;87.41
69566;BME280;56777;55.930;37.524;2023-12-14T11:50:45;101614.19;;;-5.20;87.25
69566;BME280;56777;55.930;37.524;2023-12-14T11:53:11;101605.91;;;-5.17;87.01
69566;BME280;56777;55.930;37.524;2023-12-14T11:55:41;101605.31;;;-5.15;88.01
69566;BME280;56777;55.930;37.524;2023-12-14T11:58:07;101604.06;;;-5.10;87.47
69566;BME280;56777;55.930;37.524;2023-12-14T12:00:34;101589.50;;;-5.11;87.74
69566;BME280;56777;55.930;37.524;2023-12-14T12:05:43;101587.72;;;-5.12;86.75
69566;BME280;56777;55.930;37.524;2023-12-14T12:08:09;101592.78;;;-5.03;87.83
69566;BME280;56777;55.930;37.524;2023-12-14T12:10:40;101592.06;;;-5.11;87.85
69566;BME280;56777;55.930;37.524;2023-12-14T12:13:08;101603.03;;;-5.12;86.80
69566;BME280;56777;55.930;37.524;2023-12-14T12:15:36;101613.88;;;-5.14;87.33
69566;BME280;56777;55.930;37.524;2023-12-14T12:18:05;101580.50;;;-5.16;87.73
69566;BME280;56777;55.930;37.524;2023-12-14T12:20:31;101585.75;;;-5.14;86.84
69566;BME280;56777;55.930;37.524;2023-12-14T12:22:57;101580.03;;;-5.12;87.14
69566;BME280;56777;55.930;37.524;2023-12-14T12:25:23;101589.22;;;-5.14;86.71
69566;BME280;56777;55.930;37.524;2023-12-14T12:27:49;101592.22;;;-5.09;87.74
69566;BME280;56777;55.930;37.524;2023-12-14T12:30:14;101606.16;;;-5.06;87.13
69566;BME280;56777;55.930;37.524;2023-12-14T12:32:41;101592.81;;;-5.12;87.93
69566;BME280;56777;55.930;37.524;2023-12-14T12:35:07;101577.41;;;-5.31;87.24
69566;BME280;56777;55.930;37.524;2023-12-14T12:37:33;101607.53;;;-5.09;87.23
69566;BME280;56777;55.930;37.524;2023-12-14T12:39:59;101626.75;;;-5.04;86.75
69566;BME280;56777;55.930;37.524;2023-12-14T12:42:24;101632.16;;;-5.10;86.79
69566;BME280;56777;55.930;37.524;2023-12-14T12:44:51;101640.31;;;-5.14;86.67